Watauga Observed Data For Previous 48 Hours

Caption
Day and Hour Reservoir Elevation (behind dam)* Tailwater Elevation (below dam)* Average Hourly Discharge*
3/18/2019 2 AM EDT 1,955.85 1,651.27 2,833
3/18/2019 3 AM EDT 1,955.82 1,651.27 2,827
3/18/2019 4 AM EDT 1,955.78 1,651.26 2,830
3/18/2019 5 AM EDT 1,955.75 1,651.25 2,831
3/18/2019 6 AM EDT 1,955.71 1,651.24 2,823
3/18/2019 7 AM EDT 1,955.68 1,651.26 2,835
3/18/2019 8 AM EDT 1,955.65 1,651.25 2,821
3/18/2019 9 AM EDT 1,955.62 1,651.25 2,818
3/18/2019 10 AM EDT 1,955.59 1,651.25 2,819
3/18/2019 11 AM EDT 1,955.56 1,651.24 2,819
3/18/2019 12 PM EDT 1,955.53 1,651.23 2,830
3/18/2019 1 PM EDT 1,955.50 1,651.22 2,832
3/18/2019 2 PM EDT 1,955.47 1,651.22 2,832
3/18/2019 3 PM EDT 1,955.44 1,651.22 2,819
3/18/2019 4 PM EDT 1,955.41 1,651.23 2,824
3/18/2019 5 PM EDT 1,955.39 1,651.24 2,826
3/18/2019 6 PM EDT 1,955.35 1,651.22 2,833
3/18/2019 7 PM EDT 1,955.34 1,651.24 2,833
3/18/2019 8 PM EDT 1,955.30 1,651.25 2,833
3/18/2019 9 PM EDT 1,955.28 1,651.26 2,829
3/18/2019 10 PM EDT 1,955.23 1,651.25 2,830
3/18/2019 11 PM EDT 1,955.20 1,651.25 2,828
3/19/2019 12 AM EDT 1,955.17 1,651.25 2,831
3/19/2019 1 AM EDT 1,955.14 1,651.23 2,837
3/19/2019 2 AM EDT 1,955.11 1,651.26 2,831
3/19/2019 3 AM EDT 1,955.08 1,651.23 2,833
3/19/2019 4 AM EDT 1,955.07 1,651.24 2,837
3/19/2019 5 AM EDT 1,955.02 1,651.24 2,829
3/19/2019 6 AM EDT 1,955.00 1,651.25 2,834
3/19/2019 7 AM EDT 1,954.97 1,651.25 2,833
3/19/2019 8 AM EDT 1,954.93 1,651.27 2,945
3/19/2019 9 AM EDT 1,954.90 1,648.90 1,599
3/19/2019 10 AM EDT 1,954.90 1,648.90 1,460
3/19/2019 11 AM EDT 1,954.88 1,648.91 1,460
3/19/2019 12 PM EDT 1,954.87 1,648.93 1,460
3/19/2019 1 PM EDT 1,954.87 1,648.93 1,460
3/19/2019 2 PM EDT 1,954.85 1,648.94 1,460
3/19/2019 3 PM EDT 1,954.84 1,648.91 1,460
3/19/2019 4 PM EDT 1,954.83 1,648.92 1,460
3/19/2019 5 PM EDT 1,954.81 1,648.93 1,460
3/19/2019 6 PM EDT 1,954.80 1,648.94 1,460
3/19/2019 7 PM EDT 1,954.78 1,650.35 2,628
3/19/2019 8 PM EDT 1,954.75 1,650.33 2,747
3/19/2019 9 PM EDT 1,954.72 1,650.06 2,707
3/19/2019 10 PM EDT 1,954.71 1,649.32 1,460
3/19/2019 11 PM EDT 1,954.69 1,649.29 1,460
3/20/2019 12 AM EDT 1,954.69 1,649.27 1,460
3/20/2019 1 AM EDT 1,954.68 1,649.24 1,460
3/20/2019 2 AM EDT 1,954.68 1,649.23 1,460
3/20/2019 3 AM EDT 1,954.66 1,649.21 1,460
3/20/2019 4 AM EDT 1,954.64 1,649.19 1,460
3/20/2019 5 AM EDT 1,954.63 1,649.18 1,460
3/20/2019 6 AM EDT 1,954.62 1,649.17 1,460
3/20/2019 7 AM EDT 1,954.60 1,649.16 1,460
3/20/2019 8 AM EDT 1,954.59 1,649.15 1,460

Elevations are in feet above sea level. Discharges are in cubic feet per second and are reported at the end of the hour.